Flight Track Log - Related Links

Times and Time Zones

All times are in EDT time to prevent confusion due to time zone crossing. See the N8800G flight status page for this flight to view local times or setup timezone preferences in your user account.

Time Position Orientation Groundspeed Altitude Reporting Facility
EDT Latitude Longitude Course Direction KTS MPH feet Rate Location/Type
Mon 12:01:44 PM 33.6494 -84.4681 North 464 534 2,800  Level Atlanta Center
Mon 12:02:44 PM 33.6764 -84.5456 293° West 374 430 5,200 2,700 Climbing Atlanta Center
Mon 12:03:44 PM 33.7094 -84.6281 296° West 269 310 8,200 2,350 Climbing Atlanta Center
Mon 12:04:00 PM 33.9126 -84.2459 320° Northwest  Level FlightAware Approximate
Mon 12:04:44 PM 33.7467 -84.7058 300° West 287 330 9,900  Level Atlanta Center
Mon 12:05:00 PM 34.0173 -84.3048 339° North  Level FlightAware Approximate
Mon 12:05:44 PM 33.8383 -84.7067 360° North 347 399 9,700  Level Atlanta Center
Mon 12:06:00 PM 34.1273 -84.3500 North  Level FlightAware Approximate
Mon 12:06:44 PM 33.9181 -84.6597 26° Northeast 364 419 10,900  Level Atlanta Center
Mon 12:07:44 PM 34.0100 -84.6028 27° Northeast 364 419 12,800 1,700 Climbing Atlanta Center
Mon 12:08:44 PM 34.1042 -84.5431 28° Northeast 364 419 14,300 1,450 Climbing Atlanta Center
Mon 12:09:44 PM 34.2108 -84.4758 28° Northeast 372 428 15,700 1,500 Climbing Atlanta Center
Mon 12:10:44 PM 34.3114 -84.4236 23° Northeast 384 442 17,300 1,400 Climbing Atlanta Center
Mon 12:11:44 PM 34.4219 -84.4189 North 384 442 18,500 1,200 Climbing Atlanta Center
Mon 12:12:44 PM 34.5306 -84.4144 North 389 448 19,700 1,150 Climbing Atlanta Center
Mon 12:13:44 PM 34.6431 -84.4150 360° North 389 448 20,800 1,050 Climbing Atlanta Center
Mon 12:14:44 PM 34.7581 -84.4081 North 395 455 21,800 1,000 Climbing Atlanta Center
Mon 12:15:44 PM 34.8706 -84.4083 360° North 400 460 22,800 600 Climbing Atlanta Center
Mon 12:16:44 PM 34.9686 -84.4089 360° North 400 460 23,000 100 Climbing Atlanta Center
Mon 12:17:44 PM 35.0875 -84.4094 360° North 405 466 23,000  Level Atlanta Center
Mon 12:18:44 PM 35.2025 -84.4100 360° North 405 466 23,000  Level Atlanta Center
Mon 12:19:44 PM 35.3192 -84.4131 359° North 411 473 23,000  Level Atlanta Center
Mon 12:20:44 PM 35.4381 -84.4161 359° North 416 479 23,000  Level Atlanta Center
Mon 12:21:44 PM 35.5592 -84.4192 359° North 421 484 23,000  Level Atlanta Center
Mon 12:22:44 PM 35.6781 -84.4197 360° North 421 484 23,000  Level Atlanta Center
Mon 12:23:44 PM 35.7992 -84.4228 359° North 421 484 23,000  Level Atlanta Center
Mon 12:24:44 PM 35.9222 -84.4258 359° North 421 484 23,000  Level Atlanta Center
Mon 12:27:00 PM 36.2103 -84.4247 360° North 444 511 23,000  Level Indianapolis Center
Mon 12:28:02 PM 36.3322 -84.4261 359° North 441 507 23,000  Level Indianapolis Center
Mon 12:29:04 PM 36.4558 -84.4275 359° North 445 512 23,000 -145 Level Indianapolis Center
Mon 12:30:06 PM 36.5814 -84.4428 354° North 445 512 22,700 -878 Descending Indianapolis Center
Mon 12:31:07 PM 36.7058 -84.4567 355° North 447 514 21,200 -1,475 Descending Indianapolis Center
Mon 12:32:08 PM 36.8256 -84.4683 356° North 432 497 19,700 -1,610 Descending Indianapolis Center
Mon 12:33:10 PM 36.9511 -84.4833 355° North 389 448 17,900 -1,610 Descending Indianapolis Center
Mon 12:34:11 PM 37.0444 -84.4939 355° North 349 402 16,400 -1,463 Descending Indianapolis Center
Mon 12:35:13 PM 37.1353 -84.5047 355° North 329 379 14,900 -1,463 Descending Indianapolis Center
Mon 12:36:14 PM 37.2233 -84.5156 354° North 318 366 13,400 -1,512 Descending Indianapolis Center
Mon 12:37:16 PM 37.3108 -84.5242 356° North 314 361 11,800 -1,500 Descending Indianapolis Center
Mon 12:38:18 PM 37.3961 -84.5272 358° North 311 358 10,300 -878 Descending Indianapolis Center
Mon 12:39:19 PM 37.4806 -84.5175 North 306 352 10,000 -146 Descending Indianapolis Center
Mon 12:40:21 PM 37.5594 -84.5228 357° North 288 331 10,000 -585 Level Indianapolis Center
Mon 12:41:22 PM 37.6514 -84.5061 North 285 328 8,800 -1,415 Descending Indianapolis Center
Mon 12:42:24 PM 37.7292 -84.4947 North 282 325 7,100 -1,500 Descending Indianapolis Center
Mon 12:43:26 PM 37.8072 -84.4808 North 282 325 5,700 -1,366 Descending Indianapolis Center
Mon 12:44:27 PM 37.8831 -84.4681 North 278 320 4,300 -1,122 Descending Indianapolis Center
Mon 12:45:29 PM 37.9550 -84.4586 North 271 312 3,400 -871 Descending Indianapolis Center

Login

Don't have an account? Register now (free) for customized features, flight alerts, and more!